Time;durP1;ratioP1;P1;durP2;ratioP2;P2;SDS_P1;SDS_P2;PMS_P1;PMS_P2;Temp;Humidity;BMP_temperature;BMP_pressure;BME280_temperature;BME280_humidity;BME280_pressure;Samples;Min_cycle;Max_cycle;Signal;HPM_P1;HPM_P2
2022/03/08 00:00:48;;;;;;;19.35;9.88;;;;;;;1.37;100.00;99988.41;5027263;28;20553;-20
2022/03/08 00:03:13;;;;;;;23.73;12.25;;;;;;;1.27;100.00;99996.41;5009849;28;20044;-20
2022/03/08 00:05:39;;;;;;;21.23;10.50;;;;;;;1.37;100.00;99999.72;5027754;28;20033;-20
2022/03/08 00:08:05;;;;;;;21.20;11.48;;;;;;;1.22;100.00;99993.44;5027619;28;20212;-20
2022/03/08 00:10:31;;;;;;;19.98;10.27;;;;;;;1.31;100.00;99999.50;5027601;28;20112;-20
2022/03/08 00:12:56;;;;;;;28.60;15.10;;;;;;;1.31;100.00;99997.72;5008936;28;20124;-20
2022/03/08 00:15:24;;;;;;;22.27;11.80;;;;;;;1.50;100.00;99994.00;5027571;28;20030;-19
2022/03/08 00:17:50;;;;;;;23.00;12.68;;;;;;;1.49;100.00;99995.00;5009795;28;20395;-21
2022/03/08 00:20:15;;;;;;;23.58;12.73;;;;;;;1.52;100.00;99996.47;5027517;28;20508;-20
2022/03/08 00:22:41;;;;;;;20.50;11.13;;;;;;;1.53;100.00;99992.84;5026239;28;20037;-20
2022/03/08 00:25:07;;;;;;;26.02;13.05;;;;;;;1.55;99.93;99977.72;5027017;28;20708;-20
2022/03/08 00:27:33;;;;;;;25.30;13.65;;;;;;;1.96;99.58;99999.63;5027145;28;20057;-20
2022/03/08 00:29:58;;;;;;;23.00;12.98;;;;;;;2.07;98.51;100005.53;5027294;28;20040;-20
2022/03/08 00:32:24;;;;;;;21.70;10.70;;;;;;;2.09;97.15;99993.88;5026434;28;20605;-20
2022/03/08 00:34:49;;;;;;;25.33;13.43;;;;;;;1.74;98.76;99995.84;5009570;28;20040;-20
2022/03/08 00:37:15;;;;;;;23.27;12.13;;;;;;;1.85;98.99;99986.78;5027290;28;20555;-20
2022/03/08 00:39:40;;;;;;;22.67;11.77;;;;;;;1.92;97.67;99995.69;5027337;28;20034;-20
2022/03/08 00:42:11;;;;;;;33.65;15.98;;;;;;;1.56;98.45;99966.25;5027040;28;20038;-20
2022/03/08 00:44:43;;;;;;;17.80;10.80;;;;;;;1.73;97.99;99985.47;5029876;28;20499;-20
2022/03/08 00:47:09;;;;;;;32.70;16.90;;;;;;;1.89;98.06;99990.75;5013302;28;20033;-20
2022/03/08 00:49:34;;;;;;;25.73;14.45;;;;;;;2.08;97.45;99983.50;5013589;28;20129;-21
2022/03/08 00:52:00;;;;;;;18.80;9.57;;;;;;;1.77;96.50;99978.91;5031002;28;20417;-20
2022/03/08 00:54:25;;;;;;;21.13;9.63;;;;;;;1.96;97.02;99972.47;5031045;28;20025;-20
2022/03/08 00:56:51;;;;;;;16.02;7.68;;;;;;;1.81;96.72;99977.59;5030530;28;20091;-19
2022/03/08 00:59:16;;;;;;;14.13;6.97;;;;;;;1.69;97.29;99984.16;5030946;28;20040;-20
2022/03/08 01:01:42;;;;;;;11.70;6.20;;;;;;;1.59;97.76;99960.66;5030971;28;20032;-20
2022/03/08 01:04:07;;;;;;;12.50;6.20;;;;;;;1.69;97.08;99971.00;5013090;28;20585;-20
2022/03/08 01:06:33;;;;;;;13.20;6.80;;;;;;;1.86;96.63;99977.09;5031053;28;20398;-20
2022/03/08 01:08:58;;;;;;;13.52;5.88;;;;;;;1.88;96.31;99975.97;5030704;28;20061;-20
2022/03/08 01:11:24;;;;;;;13.38;6.72;;;;;;;1.84;95.30;99964.13;5030429;28;20033;-20
2022/03/08 01:13:49;;;;;;;12.77;6.10;;;;;;;1.75;95.58;99970.34;5030636;28;20053;-20
2022/03/08 01:16:15;;;;;;;11.40;6.30;;;;;;;1.77;96.59;99966.56;5030844;28;20037;-20
2022/03/08 01:18:40;;;;;;;14.23;6.53;;;;;;;1.68;96.28;99972.00;5030839;28;20044;-20
2022/03/08 01:21:06;;;;;;;11.57;6.22;;;;;;;2.11;95.86;99980.56;5030275;28;20412;-20
2022/03/08 01:23:32;;;;;;;10.82;5.38;;;;;;;1.86;94.12;99985.81;5030668;28;20049;-19
2022/03/08 01:25:58;;;;;;;12.57;6.07;;;;;;;1.89;95.33;99993.38;5030344;28;20056;-21
2022/03/08 01:28:23;;;;;;;11.85;5.47;;;;;;;2.14;93.81;99996.00;5030356;28;20029;-20
2022/03/08 01:30:49;;;;;;;12.82;6.53;;;;;;;2.04;94.16;99990.88;5030575;28;20025;-20
2022/03/08 01:33:15;;;;;;;10.45;5.65;;;;;;;2.07;94.04;99997.66;5030486;28;20029;-20
2022/03/08 01:35:40;;;;;;;11.30;5.57;;;;;;;1.81;94.06;99977.59;5030424;28;20517;-21
2022/03/08 01:38:06;;;;;;;12.52;5.95;;;;;;;2.00;94.25;99987.78;5030287;28;20041;-20
2022/03/08 01:40:31;;;;;;;12.13;5.93;;;;;;;2.22;93.82;99994.16;5030202;28;20040;-20
2022/03/08 01:42:56;;;;;;;11.40;6.10;;;;;;;2.32;92.70;99978.19;5030138;28;20811;-20
2022/03/08 01:45:24;;;;;;;13.82;6.63;;;;;;;2.64;91.47;100004.66;5030371;28;20110;-20
2022/03/08 01:47:49;;;;;;;10.73;5.65;;;;;;;2.60;91.18;100001.53;5030045;28;20029;-20
2022/03/08 01:50:15;;;;;;;11.35;6.40;;;;;;;2.42;91.83;100005.16;5030044;28;20083;-20
2022/03/08 01:52:41;;;;;;;11.07;5.50;;;;;;;2.28;92.54;99997.94;5029694;28;20029;-20
2022/03/08 01:55:07;;;;;;;11.93;5.72;;;;;;;2.42;93.07;99999.09;5011186;28;20064;-20
2022/03/08 01:57:33;;;;;;;11.70;5.88;;;;;;;2.61;91.58;100013.69;5030142;28;20087;-20
2022/03/08 01:59:58;;;;;;;12.07;6.30;;;;;;;2.68;91.43;100009.41;5029832;28;20456;-20
2022/03/08 02:02:24;;;;;;;11.55;6.55;;;;;;;2.72;90.61;100015.97;5029910;28;20481;-19
2022/03/08 02:04:50;;;;;;;15.52;7.65;;;;;;;2.64;91.01;100009.91;5029491;28;20033;-20
2022/03/08 02:07:15;;;;;;;16.45;8.27;;;;;;;2.55;90.66;99994.09;5029712;28;20072;-19
2022/03/08 02:09:41;;;;;;;13.85;7.15;;;;;;;2.60;90.86;99994.44;5011793;28;20033;-20
2022/03/08 02:12:07;;;;;;;12.25;6.75;;;;;;;2.85;90.15;100017.25;5029776;28;20076;-20
2022/03/08 02:14:33;;;;;;;10.32;5.60;;;;;;;2.25;92.45;100014.09;5029932;28;21012;-20
2022/03/08 02:16:59;;;;;;;12.50;6.72;;;;;;;2.42;92.71;100010.44;5011770;28;20108;-20
2022/03/08 02:19:24;;;;;;;11.52;6.20;;;;;;;2.15;92.64;99993.19;5029679;28;20456;-20
2022/03/08 02:21:50;;;;;;;12.95;6.50;;;;;;;2.17;93.33;100014.09;5029414;28;20103;-20
2022/03/08 02:24:16;;;;;;;10.50;6.05;;;;;;;2.01;93.31;100007.03;5011895;28;20029;-19
2022/03/08 02:26:42;;;;;;;10.60;5.88;;;;;;;2.13;94.10;100016.22;5029396;28;20168;-20
2022/03/08 02:29:08;;;;;;;12.13;6.35;;;;;;;1.86;93.22;99992.88;5029240;28;20497;-20
2022/03/08 02:31:34;;;;;;;11.15;5.43;;;;;;;2.01;93.75;100013.09;5029311;28;20055;-20
2022/03/08 02:34:00;;;;;;;9.52;5.40;;;;;;;1.96;92.56;100014.56;5011439;28;20086;-20
2022/03/08 02:36:25;;;;;;;10.88;6.05;;;;;;;2.09;93.04;100011.47;5029226;28;20033;-20
2022/03/08 02:38:51;;;;;;;9.00;5.57;;;;;;;2.22;92.79;100011.78;4994823;28;20048;-20
2022/03/08 02:41:16;;;;;;;10.10;5.03;;;;;;;2.04;91.23;100005.84;5029232;28;20034;-20
2022/03/08 02:43:42;;;;;;;11.45;5.57;;;;;;;2.25;91.79;100014.09;5011332;28;20040;-20
2022/03/08 02:46:07;;;;;;;10.73;5.90;;;;;;;2.32;90.92;99996.63;5029082;28;20460;-20
2022/03/08 02:48:33;;;;;;;12.43;6.35;;;;;;;2.37;89.88;99996.97;5028985;28;20037;-20
2022/03/08 02:50:58;;;;;;;12.63;6.78;;;;;;;2.43;89.68;99995.44;5011122;28;20512;-21
2022/03/08 02:53:24;;;;;;;11.43;6.45;;;;;;;2.14;90.40;99996.00;5028503;28;20108;-20
2022/03/08 02:55:49;;;;;;;12.43;6.97;;;;;;;2.07;91.82;100016.88;5029108;28;20513;-20
2022/03/08 02:58:15;;;;;;;13.32;6.72;;;;;;;2.15;91.39;99992.38;5028781;28;20040;-19
2022/03/08 03:00:40;;;;;;;13.25;6.88;;;;;;;1.92;92.34;100008.84;5011178;28;20163;-20
2022/03/08 03:03:06;;;;;;;15.07;7.05;;;;;;;1.80;92.97;100008.31;5010689;28;20116;-20
2022/03/08 03:05:32;;;;;;;17.55;9.30;;;;;;;1.83;92.64;100006.34;5010720;28;20038;-20
2022/03/08 03:07:58;;;;;;;19.95;11.27;;;;;;;1.99;92.85;100007.19;5027446;28;20037;-20
2022/03/08 03:10:23;;;;;;;17.65;10.82;;;;;;;2.15;91.61;99981.88;5027215;28;20029;-21
2022/03/08 03:12:49;;;;;;;23.70;14.60;;;;;;;2.46;90.86;99995.13;5026656;28;20049;-20
2022/03/08 03:15:15;;;;;;;15.50;9.07;;;;;;;1.83;91.15;99999.28;5028418;28;20065;-21
2022/03/08 03:17:41;;;;;;;15.45;8.98;;;;;;;2.24;91.01;100007.16;5028629;28;20080;-20
2022/03/08 03:20:07;;;;;;;14.88;8.90;;;;;;;1.99;91.58;100001.91;5028327;28;20029;-20
2022/03/08 03:22:33;;;;;;;11.63;6.75;;;;;;;1.75;92.95;100002.72;5010241;28;20121;-20
2022/03/08 03:24:59;;;;;;;12.10;6.65;;;;;;;1.96;92.71;100020.66;5028262;28;20033;-21
2022/03/08 03:27:24;;;;;;;13.32;7.13;;;;;;;1.88;92.80;99997.00;5010601;28;20146;-20
2022/03/08 03:29:50;;;;;;;14.63;8.30;;;;;;;1.73;93.25;100019.66;5028349;28;20029;-20
2022/03/08 03:32:15;;;;;;;17.67;9.45;;;;;;;1.98;92.85;100018.69;5028111;28;20547;-20
2022/03/08 03:34:41;;;;;;;19.17;10.50;;;;;;;2.37;92.72;100028.53;5010309;28;20072;-20
2022/03/08 03:37:06;;;;;;;18.50;9.10;;;;;;;2.24;91.03;100017.69;5027800;28;20041;-20
2022/03/08 03:39:32;;;;;;;19.30;9.10;;;;;;;2.06;91.35;100025.75;5028236;28;20064;-20
2022/03/08 03:41:57;;;;;;;19.92;10.88;;;;;;;2.40;90.49;100028.19;5028142;28;20033;-22
2022/03/08 03:44:23;;;;;;;40.28;20.73;;;;;;;2.18;90.89;100028.88;5028306;28;20033;-20
2022/03/08 03:46:48;;;;;;;21.67;10.77;;;;;;;2.14;91.27;100017.03;5027745;28;20098;-20
2022/03/08 03:49:14;;;;;;;29.60;17.48;;;;;;;2.37;91.24;100028.53;5028135;28;20040;-22
2022/03/08 03:51:40;;;;;;;30.42;17.92;;;;;;;2.40;90.78;100001.06;5027605;28;20034;-20
2022/03/08 03:54:05;;;;;;;17.75;9.70;;;;;;;2.39;89.90;100025.72;5027518;28;20029;-20
2022/03/08 03:56:31;;;;;;;22.00;14.10;;;;;;;2.32;89.87;100025.56;5027813;28;20037;-26
2022/03/08 03:58:56;;;;;;;20.13;12.25;;;;;;;2.13;91.62;100024.13;5027484;28;20779;-20
2022/03/08 04:01:22;;;;;;;52.47;34.50;;;;;;;2.40;90.96;100025.56;5027607;28;20040;-20
2022/03/08 04:03:47;;;;;;;19.73;10.50;;;;;;;2.24;90.71;100019.50;5027705;28;20026;-21
2022/03/08 04:06:13;;;;;;;20.27;10.50;;;;;;;2.01;91.56;100005.19;5027437;28;20036;-19
2022/03/08 04:08:39;;;;;;;25.08;14.13;;;;;;;2.23;91.71;100029.22;5026350;28;20029;-20
2022/03/08 04:11:04;;;;;;;20.75;10.20;;;;;;;2.37;91.09;100033.81;5027204;28;20033;-20
2022/03/08 04:13:30;;;;;;;16.27;9.15;;;;;;;2.36;90.74;100024.25;5027482;28;20497;-20
2022/03/08 04:15:55;;;;;;;19.80;10.25;;;;;;;2.49;90.76;100015.03;5027382;28;20038;-20
2022/03/08 04:18:21;;;;;;;27.02;15.32;;;;;;;2.54;89.90;100023.25;5025613;28;20044;-20
2022/03/08 04:20:46;;;;;;;26.63;14.20;;;;;;;2.45;90.40;100019.78;5027393;28;20107;-21
2022/03/08 04:23:12;;;;;;;31.17;21.10;;;;;;;2.58;89.90;100017.47;5027348;28;20029;-20
2022/03/08 04:25:37;;;;;;;45.03;33.85;;;;;;;2.91;88.50;100019.19;5027083;28;20029;-20
2022/03/08 04:28:03;;;;;;;21.58;11.50;;;;;;;3.32;86.09;100032.19;5027499;28;20029;-20
2022/03/08 04:30:29;;;;;;;24.23;12.05;;;;;;;3.38;84.63;100024.41;5026653;28;20076;-20
2022/03/08 04:32:54;;;;;;;28.30;14.98;;;;;;;3.49;83.28;100033.75;5027260;28;20828;-20
2022/03/08 04:35:20;;;;;;;28.75;14.32;;;;;;;3.56;82.95;100029.44;5027082;28;20033;-20
2022/03/08 04:37:46;;;;;;;25.40;15.13;;;;;;;3.29;84.19;100046.56;5027013;28;20065;-20
2022/03/08 04:40:11;;;;;;;118.68;73.45;;;;;;;2.70;86.27;100015.31;5009603;28;20033;-21
2022/03/08 04:42:38;;;;;;;35.85;21.50;;;;;;;2.87;86.82;100047.69;5027181;28;20033;-22
2022/03/08 04:45:03;;;;;;;21.10;12.82;;;;;;;2.58;88.70;100041.16;5009562;28;20044;-20
2022/03/08 04:47:29;;;;;;;21.52;11.07;;;;;;;2.54;88.78;100033.78;5027317;28;20421;-20
2022/03/08 04:49:54;;;;;;;23.92;12.45;;;;;;;2.46;89.77;100041.69;5027031;28;20110;-20
2022/03/08 04:52:20;;;;;;;46.47;29.10;;;;;;;2.40;89.53;100028.19;5027280;28;20046;-20
2022/03/08 04:54:45;;;;;;;26.23;15.38;;;;;;;2.42;90.03;100044.63;5009476;28;20032;-20
2022/03/08 04:57:11;;;;;;;23.02;12.68;;;;;;;2.51;90.24;100032.28;5025713;28;20500;-20
2022/03/08 04:59:36;;;;;;;48.75;28.40;;;;;;;2.65;89.50;100045.75;5027006;28;20026;-20
2022/03/08 05:02:02;;;;;;;15.90;8.73;;;;;;;2.47;89.23;100059.13;5026926;28;20034;-20
2022/03/08 05:04:27;;;;;;;74.78;48.58;;;;;;;2.47;89.21;100040.69;5026783;28;20041;-21
2022/03/08 05:06:53;;;;;;;20.17;8.80;;;;;;;2.40;89.20;100062.41;5026570;28;20034;-20
2022/03/08 05:09:19;;;;;;;18.30;9.73;;;;;;;2.33;89.40;100061.44;5027182;28;20935;-20
2022/03/08 05:11:44;;;;;;;20.15;10.10;;;;;;;2.09;90.78;100050.91;5026799;28;20044;-20
2022/03/08 05:14:10;;;;;;;13.80;7.85;;;;;;;2.16;91.30;100070.31;5026662;28;20057;-20
2022/03/08 05:16:35;;;;;;;17.42;9.60;;;;;;;1.79;92.27;100046.09;5009145;28;20033;-21
2022/03/08 05:19:00;;;;;;;20.42;10.70;;;;;;;1.84;93.40;100068.47;5026683;28;20091;-20
2022/03/08 05:21:26;;;;;;;17.55;8.65;;;;;;;1.80;93.76;100062.72;5025117;28;20064;-20
2022/03/08 05:23:51;;;;;;;44.83;25.35;;;;;;;1.91;93.49;100065.03;5026902;28;20470;-20
2022/03/08 05:26:17;;;;;;;74.13;38.58;;;;;;;1.98;92.85;100060.78;5026627;28;20054;-20
2022/03/08 05:28:42;;;;;;;122.20;66.28;;;;;;;2.04;92.66;100071.63;5026686;28;20038;-21
2022/03/08 05:31:09;;;;;;;121.43;63.97;;;;;;;1.92;92.50;100050.06;5028126;28;20034;-20
2022/03/08 05:33:35;;;;;;;38.90;23.95;;;;;;;2.12;91.17;100061.09;5028889;28;20034;-20
2022/03/08 05:36:00;;;;;;;38.15;21.27;;;;;;;2.04;91.78;100066.34;5030150;28;20037;-20
2022/03/08 05:38:26;;;;;;;72.60;43.13;;;;;;;2.18;92.55;100074.41;5030257;28;20037;-20
2022/03/08 05:40:52;;;;;;;59.22;35.28;;;;;;;2.00;92.98;100066.69;5030027;28;20037;-20
2022/03/08 05:43:17;;;;;;;100.05;63.45;;;;;;;2.20;91.91;100074.25;5028752;28;20087;-20
2022/03/08 05:45:43;;;;;;;62.08;32.22;;;;;;;2.32;91.22;100080.84;5030038;28;20025;-20
2022/03/08 05:48:09;;;;;;;58.28;30.23;;;;;;;2.35;91.69;100085.78;5030130;28;20490;-20
2022/03/08 05:50:34;;;;;;;56.90;35.03;;;;;;;2.42;90.83;100084.13;5028215;28;20116;-20
2022/03/08 05:53:00;;;;;;;80.57;44.78;;;;;;;2.34;90.84;100081.50;5029464;28;20036;-20
2022/03/08 05:55:25;;;;;;;63.22;35.40;;;;;;;2.13;91.97;100083.81;5029891;28;20485;-19
2022/03/08 05:57:50;;;;;;;60.88;33.05;;;;;;;2.33;90.56;100093.03;5030010;28;20413;-20
2022/03/08 06:00:16;;;;;;;108.88;57.45;;;;;;;2.08;91.87;100065.84;5029641;28;20037;-20
2022/03/08 06:02:41;;;;;;;92.22;50.40;;;;;;;2.31;91.47;100070.47;5029866;28;20029;-20
2022/03/08 06:05:07;;;;;;;76.95;36.97;;;;;;;2.33;91.26;100097.44;5029455;28;20541;-21
2022/03/08 06:07:33;;;;;;;114.03;60.58;;;;;;;2.37;92.18;100098.75;5012267;28;20040;-20
2022/03/08 06:09:59;;;;;;;55.30;30.05;;;;;;;2.22;91.54;100088.06;5029821;28;20029;-20
2022/03/08 06:12:25;;;;;;;49.75;27.33;;;;;;;2.36;91.30;100097.94;5029664;28;20045;-20
2022/03/08 06:14:50;;;;;;;37.63;20.50;;;;;;;2.27;91.26;100095.47;5029560;28;20040;-20
2022/03/08 06:17:16;;;;;;;34.58;18.15;;;;;;;2.30;91.16;100090.72;5028252;28;20147;-20
2022/03/08 06:19:41;;;;;;;59.50;35.03;;;;;;;2.58;90.91;100100.91;5029323;28;20037;-19
2022/03/08 06:22:07;;;;;;;52.67;31.48;;;;;;;2.53;89.61;100090.03;5029459;28;20037;-20
2022/03/08 06:24:32;;;;;;;56.83;34.50;;;;;;;2.54;89.82;100103.03;5029319;28;20037;-20
2022/03/08 06:26:58;;;;;;;35.05;19.15;;;;;;;2.44;90.24;100110.28;5029087;28;20037;-21
2022/03/08 06:29:24;;;;;;;25.48;13.65;;;;;;;2.41;91.34;100114.06;5029139;28;20036;-20
2022/03/08 06:31:49;;;;;;;18.67;9.75;;;;;;;2.33;91.56;100114.06;5029244;28;20116;-20
2022/03/08 06:34:14;;;;;;;20.38;10.82;;;;;;;2.10;91.87;100110.44;5028625;28;20482;-20
2022/03/08 06:36:41;;;;;;;24.45;13.18;;;;;;;2.13;93.00;100100.41;5029199;28;20041;-20
2022/03/08 06:39:06;;;;;;;22.33;12.25;;;;;;;2.21;93.07;100110.13;5028941;28;20144;-19
2022/03/08 06:41:32;;;;;;;25.40;13.27;;;;;;;2.41;92.25;100110.59;5028805;28;20048;-20
2022/03/08 06:43:59;;;;;;;25.92;13.57;;;;;;;2.55;92.01;100119.66;5029084;28;20049;-20
2022/03/08 06:46:25;;;;;;;23.08;12.85;;;;;;;2.46;91.69;100118.84;5028912;28;20106;-20
2022/03/08 06:48:50;;;;;;;22.73;10.43;;;;;;;2.25;91.82;100108.81;5028640;28;20448;-20
2022/03/08 06:51:16;;;;;;;22.90;12.35;;;;;;;2.23;92.08;100105.53;5028987;28;20033;-21
2022/03/08 06:53:41;;;;;;;40.28;26.20;;;;;;;2.59;91.01;100111.25;5028608;28;20021;-20
2022/03/08 06:56:07;;;;;;;20.80;11.75;;;;;;;2.63;89.93;100121.47;5028610;28;20029;-20
2022/03/08 06:58:32;;;;;;;26.40;14.20;;;;;;;2.53;90.76;100121.63;5028681;28;20037;-20
2022/03/08 07:00:58;;;;;;;18.80;10.55;;;;;;;2.24;92.39;100125.56;5010586;28;20513;-20
2022/03/08 07:03:23;;;;;;;20.00;11.18;;;;;;;2.30;92.59;100127.53;5028397;28;20026;-21
2022/03/08 07:05:49;;;;;;;29.88;14.93;;;;;;;2.65;92.16;100120.31;5028434;28;20037;-20
2022/03/08 07:08:14;;;;;;;36.03;21.15;;;;;;;2.72;89.86;100116.03;5028443;28;20033;-20
2022/03/08 07:10:40;;;;;;;19.55;9.95;;;;;;;2.62;90.18;100123.28;5028636;28;20037;-21
2022/03/08 07:13:05;;;;;;;35.83;18.90;;;;;;;2.44;91.27;100122.63;5027754;28;20057;-21
2022/03/08 07:15:31;;;;;;;35.13;20.88;;;;;;;2.80;91.12;100121.28;5028264;28;20040;-20
2022/03/08 07:17:56;;;;;;;36.05;20.15;;;;;;;2.69;90.37;100113.72;5010019;28;20037;-21
2022/03/08 07:20:22;;;;;;;38.38;22.38;;;;;;;2.58;90.23;100119.34;5028349;28;20449;-20
2022/03/08 07:22:47;;;;;;;32.92;21.02;;;;;;;2.32;90.27;100112.41;5027909;28;20526;-22
2022/03/08 07:25:15;;;;;;;41.28;25.48;;;;;;;2.46;90.24;100120.66;5028172;28;20460;-19
2022/03/08 07:27:40;;;;;;;30.07;17.00;;;;;;;2.56;91.10;100103.69;5026832;28;20034;-21
2022/03/08 07:30:06;;;;;;;34.80;21.70;;;;;;;2.70;90.19;100118.00;5026733;28;20417;-20
2022/03/08 07:32:32;;;;;;;29.35;16.35;;;;;;;2.76;90.64;100121.78;5026776;28;20136;-20
2022/03/08 07:34:58;;;;;;;28.38;15.60;;;;;;;2.81;90.73;100124.75;5027836;28;20116;-19
2022/03/08 07:37:23;;;;;;;22.85;13.07;;;;;;;2.88;89.23;100120.47;5028244;28;20029;-21
2022/03/08 07:39:49;;;;;;;29.38;15.32;;;;;;;3.06;87.99;100112.34;5027833;28;20128;-21
2022/03/08 07:42:14;;;;;;;37.78;20.23;;;;;;;2.99;88.27;100117.47;5027877;28;20040;-20
2022/03/08 07:44:40;;;;;;;35.67;21.55;;;;;;;2.70;88.57;100101.41;5009984;28;20041;-20
2022/03/08 07:47:05;;;;;;;40.33;23.75;;;;;;;2.89;89.32;100118.66;5027408;28;20029;-20
2022/03/08 07:49:31;;;;;;;30.17;16.75;;;;;;;3.04;89.56;100118.78;5028202;28;20036;-20
2022/03/08 07:51:56;;;;;;;22.38;11.35;;;;;;;2.75;89.76;100123.59;5027749;28;21099;-20
2022/03/08 07:54:22;;;;;;;23.35;11.93;;;;;;;2.55;90.18;100122.28;5027104;28;20083;-20
2022/03/08 07:56:47;;;;;;;18.40;9.95;;;;;;;2.41;89.88;100102.69;5027248;28;20489;-20
2022/03/08 07:59:13;;;;;;;18.52;9.25;;;;;;;2.18;91.37;100113.06;5027706;28;20489;-20
2022/03/08 08:01:38;;;;;;;17.00;10.07;;;;;;;2.40;91.21;100116.88;5027260;28;20082;-21
2022/03/08 08:04:04;;;;;;;28.42;16.77;;;;;;;2.73;90.78;100115.03;5027555;28;20096;-20
2022/03/08 08:06:29;;;;;;;27.17;17.17;;;;;;;2.85;90.13;100118.16;5027428;28;20037;-19
2022/03/08 08:08:55;;;;;;;18.58;9.93;;;;;;;2.93;89.43;100112.03;5009797;28;20037;-20
2022/03/08 08:11:20;;;;;;;17.23;8.95;;;;;;;2.59;90.00;100120.97;5027306;28;20025;-20
2022/03/08 08:13:48;;;;;;;82.18;37.90;;;;;;;2.46;89.94;100110.13;5027154;28;20099;-20
2022/03/08 08:16:14;;;;;;;20.50;10.70;;;;;;;2.19;91.79;100091.88;5027206;28;20091;-20
2022/03/08 08:18:39;;;;;;;16.85;8.85;;;;;;;2.02;93.15;100092.81;5027108;28;20099;-19
2022/03/08 08:21:05;;;;;;;19.23;10.13;;;;;;;2.09;94.41;100099.09;5027411;28;20037;-20
2022/03/08 08:23:31;;;;;;;66.20;30.60;;;;;;;2.26;93.89;100099.09;5009882;28;20261;-20
2022/03/08 08:25:57;;;;;;;21.02;11.98;;;;;;;2.11;94.35;100093.66;5027250;28;20116;-20
2022/03/08 08:28:22;;;;;;;16.95;9.30;;;;;;;2.17;94.32;100090.38;5027175;28;20055;-20
2022/03/08 08:30:47;;;;;;;101.53;41.42;;;;;;;2.41;93.47;100093.03;5026869;28;20036;-22
2022/03/08 08:33:13;;;;;;;94.50;37.65;;;;;;;2.30;92.45;100097.78;5026841;28;20034;-20
2022/03/08 08:35:38;;;;;;;31.98;16.63;;;;;;;2.60;93.54;100096.31;5027159;28;20025;-20
2022/03/08 08:38:05;;;;;;;17.58;9.23;;;;;;;2.77;91.30;100091.81;5027351;28;20478;-20
2022/03/08 08:40:31;;;;;;;75.95;31.45;;;;;;;2.40;91.04;100065.03;5027223;28;20091;-20
2022/03/08 08:42:57;;;;;;;18.83;9.77;;;;;;;2.72;93.02;100084.44;5027019;28;20100;-20
2022/03/08 08:45:22;;;;;;;40.72;20.63;;;;;;;2.88;92.63;100094.13;5009215;28;20033;-20
2022/03/08 08:47:48;;;;;;;19.20;10.55;;;;;;;2.93;91.74;100081.25;5026948;28;20052;-20
2022/03/08 08:50:13;;;;;;;21.85;12.30;;;;;;;3.17;89.60;100098.00;5027246;28;20029;-20
2022/03/08 08:52:39;;;;;;;25.08;12.23;;;;;;;3.49;89.68;100094.38;5026843;28;20044;-20
2022/03/08 08:55:05;;;;;;;14.25;8.35;;;;;;;3.31;87.87;100096.44;5026273;28;20021;-20
2022/03/08 08:57:30;;;;;;;19.33;10.57;;;;;;;3.33;88.11;100097.94;5026087;28;20034;-21
2022/03/08 08:59:56;;;;;;;14.20;7.53;;;;;;;3.24;88.92;100100.75;5026612;28;20505;-20
2022/03/08 09:02:21;;;;;;;13.30;7.97;;;;;;;2.95;89.59;100096.91;5026845;28;20549;-20
2022/03/08 09:04:47;;;;;;;17.02;9.43;;;;;;;3.13;90.30;100089.59;5027789;28;20026;-19
2022/03/08 09:07:12;;;;;;;16.25;9.32;;;;;;;3.20;90.48;100087.91;5012332;28;20037;-20
2022/03/08 09:09:37;;;;;;;86.07;42.45;;;;;;;2.99;88.71;100095.56;5013081;28;20583;-20
2022/03/08 09:12:03;;;;;;;15.73;9.65;;;;;;;2.92;86.19;100070.88;5012293;28;20421;-20
2022/03/08 09:14:29;;;;;;;21.52;10.90;;;;;;;3.20;87.60;100090.53;5030264;28;20087;-20
2022/03/08 09:16:55;;;;;;;16.70;8.25;;;;;;;3.04;89.88;100073.97;5029405;28;20071;-20
2022/03/08 09:19:20;;;;;;;11.55;7.05;;;;;;;3.27;88.38;100089.88;5030123;28;20030;-21
2022/03/08 09:21:46;;;;;;;17.20;10.00;;;;;;;3.53;87.50;100079.88;5030358;28;20040;-20
2022/03/08 09:24:11;;;;;;;15.65;8.40;;;;;;;3.80;85.00;100088.28;5030518;28;20098;-21
2022/03/08 09:26:37;;;;;;;14.23;7.80;;;;;;;3.50;85.94;100087.31;5030509;28;20041;-20
2022/03/08 09:29:02;;;;;;;94.22;43.17;;;;;;;3.81;87.12;100092.59;5030083;28;20056;-20
2022/03/08 09:31:28;;;;;;;80.90;38.05;;;;;;;3.75;85.41;100085.38;5030002;28;20037;-21
2022/03/08 09:33:53;;;;;;;11.50;7.35;;;;;;;3.36;85.98;100073.03;5030267;28;20057;-20
2022/03/08 09:36:19;;;;;;;13.32;7.75;;;;;;;3.65;85.78;100095.31;5030351;28;20079;-20
2022/03/08 09:38:44;;;;;;;13.02;8.13;;;;;;;3.88;83.88;100106.72;5030156;28;20037;-20
2022/03/08 09:41:11;;;;;;;12.48;6.78;;;;;;;3.83;82.46;100098.50;5011805;28;20037;-20
2022/03/08 09:43:39;;;;;;;14.13;8.88;;;;;;;4.08;84.34;100101.00;5029264;28;20053;-21
2022/03/08 09:46:05;;;;;;;;;;;;;;;4.01;82.95;100099.06;5029014;28;20068;-20
2022/03/08 09:48:31;;;;;;;46.30;23.13;;;;;;;4.21;83.93;100101.25;5030149;28;20750;-20
2022/03/08 09:51:00;;;;;;;29.20;15.57;;;;;;;4.55;82.09;100100.78;5011612;28;20033;-20
2022/03/08 09:53:25;;;;;;;13.07;7.95;;;;;;;4.16;81.13;100098.28;5012004;28;20025;-21
2022/03/08 09:55:51;;;;;;;16.60;8.68;;;;;;;4.46;83.41;100093.13;5029635;28;20044;-20
2022/03/08 09:58:20;;;;;;;11.15;7.25;;;;;;;4.36;80.61;100091.53;5011674;28;20029;-21
2022/03/08 10:00:46;;;;;;;14.10;8.30;;;;;;;4.22;83.32;100100.22;5028696;28;20044;-20
2022/03/08 10:03:11;;;;;;;11.68;7.43;;;;;;;3.91;80.39;100098.47;5029445;28;20033;-22
2022/03/08 10:05:40;;;;;;;18.05;11.10;;;;;;;4.10;82.74;100072.59;5029705;28;20026;-20
2022/03/08 10:08:13;;;;;;;43.47;25.50;;;;;;;4.24;83.20;100090.31;5014106;28;20037;-21
2022/03/08 10:11:00;;;;;;;27.58;22.55;;;;;;;4.83;78.53;100095.72;5029451;28;20047;-20
2022/03/08 10:13:39;;;;;;;11.80;7.18;;;;;;;4.62;79.13;100101.72;5029482;28;20049;-22
2022/03/08 10:16:08;;;;;;;33.70;17.85;;;;;;;5.17;76.72;100097.03;5028637;28;20033;-19
2022/03/08 10:18:35;;;;;;;27.67;17.10;;;;;;;5.38;76.39;100108.69;5029447;28;20021;-21
2022/03/08 10:21:00;;;;;;;13.88;9.25;;;;;;;5.42;76.20;100108.13;5029008;28;20036;-20
2022/03/08 10:23:26;;;;;;;12.57;6.90;;;;;;;4.64;76.42;100112.09;5029269;28;20065;-20
2022/03/08 10:25:51;;;;;;;10.98;6.97;;;;;;;4.10;80.37;100109.56;5029139;28;20037;-20
2022/03/08 10:28:17;;;;;;;10.95;6.97;;;;;;;4.34;77.63;100085.59;5029366;28;20033;-21
2022/03/08 10:30:42;;;;;;;17.38;9.93;;;;;;;4.85;77.08;100113.25;5029566;28;20379;-20
2022/03/08 10:33:08;;;;;;;14.45;9.68;;;;;;;4.85;74.95;100098.19;5010924;28;20037;-20
2022/03/08 10:35:38;;;;;;;13.10;8.52;;;;;;;4.52;78.13;100092.41;5011446;28;20037;-20
2022/03/08 10:38:05;;;;;;;13.77;8.77;;;;;;;4.34;76.63;100095.34;4995729;28;20029;-21
2022/03/08 10:40:32;;;;;;;13.55;8.48;;;;;;;4.27;77.86;100100.53;5029168;28;20033;-21
2022/03/08 10:43:05;;;;;;;12.10;7.65;;;;;;;4.39;79.69;100116.75;5028909;28;20033;-21
2022/03/08 10:45:31;;;;;;;12.10;7.85;;;;;;;4.42;79.45;100119.06;5028931;28;20053;-20
2022/03/08 10:47:57;;;;;;;12.80;8.18;;;;;;;3.98;79.71;100075.66;5028808;28;20045;-20
2022/03/08 10:50:24;;;;;;;12.70;8.30;;;;;;;4.27;80.51;100107.59;5010907;28;20033;-20
2022/03/08 10:52:51;;;;;;;13.93;8.52;;;;;;;4.25;79.73;100107.81;5028695;28;20068;-20
2022/03/08 10:55:24;;;;;;;16.17;9.65;;;;;;;4.30;78.76;100109.91;5028726;28;20057;-20
2022/03/08 10:57:54;;;;;;;17.48;11.80;;;;;;;4.16;78.82;100098.28;5028797;28;20030;-20
2022/03/08 11:00:47;;;;;;;18.40;10.57;;;;;;;4.08;78.88;100112.34;5011548;28;20033;-19
2022/03/08 11:03:20;;;;;;;18.00;12.38;;;;;;;4.09;79.11;100115.84;5024848;28;20049;-20
2022/03/08 11:05:52;;;;;;;11.73;8.30;;;;;;;4.26;80.45;100112.06;5028929;28;20029;-20
2022/03/08 11:08:18;;;;;;;17.42;11.68;;;;;;;4.42;80.25;100109.31;5028585;28;20041;-20
2022/03/08 11:10:43;;;;;;;15.73;10.60;;;;;;;4.36;78.77;100094.16;5028735;28;20044;-20
2022/03/08 11:13:09;;;;;;;13.00;8.95;;;;;;;4.17;78.78;100097.31;5027881;28;20144;-20
2022/03/08 11:15:36;;;;;;;14.45;9.73;;;;;;;4.25;80.13;100118.38;5010523;28;20121;-20